Flinterduin — PEBT — position and weather

sailwx.info

Track history (hours):
 
Tides and Currents Weather Stations Pressure Air Temp Water Temp Dewpoint Dewpoint Depression Visibility Wind Speed Wind Dir Waves Ship Positions

Flinterduin

Last reported at 2014-Nov-18 23:33 UTC. Time now 2014-Nov-22 15:42 UTC.
Position N 39°38' E 024°02'.

Length 112 m; beam 15 m.

Type: Ship (hazmat cat A). MMSI: 246484000.

Date/timePositionNaut miles runAvg speedWind from/ knotsBaromVisibWave heightAir tempDewpointWater temp
2014-Nov-18 23:33N 39°38' E 024°02'1110.6
2014-Nov-18 22:33N 39°33' E 024°15'5011.0
2014-Nov-18 18:00N 38°48' E 024°42'5611.4 160 / 131018.3 5.4 20.015.3
2014-Nov-18 13:05N 37°52' E 024°40'712.8
2014-Nov-18 12:33N 37°46' E 024°43'1312.8
2014-Nov-18 11:32N 37°36' E 024°53'1110.9
2014-Nov-18 10:32N 37°26' E 024°60'2 1.6
2014-Nov-18 09:33N 37°25' E 024°58'0 0.0
2014-Nov-18 08:30N 37°25' E 024°58'0 0.0
2014-Nov-18 07:33N 37°25' E 024°58'0 0.0
2014-Nov-18 06:30N 37°25' E 024°58'0 0.0
2014-Nov-18 05:33N 37°25' E 024°58'0 0.1
2014-Nov-18 04:30N 37°25' E 024°58'3 3.6
2014-Nov-18 03:33N 37°22' E 025°01'9 9.4
2014-Nov-18 02:33N 37°16' E 024°52'10 9.7
2014-Nov-18 01:33N 37°10' E 024°42'1010.4
2014-Nov-18 00:34N 37°04' E 024°32'1010.3
2014-Nov-17 23:34N 36°59' E 024°21'9 9.4
2014-Nov-17 22:33N 36°54' E 024°11'8 8.4
2014-Nov-17 21:34N 36°49' E 024°02'8 8.4
2014-Nov-17 20:33N 36°44' E 023°53'8 8.3
2014-Nov-17 19:33N 36°40' E 023°44'1010.1
2014-Nov-17 18:33N 36°34' E 023°34'5 9.3
2014-Nov-17 18:00N 36°30' E 023°30'613.6 200 / 131016.3 5.4 19.015.9
2014-Nov-17 17:33N 36°29' E 023°23'2110.7
2014-Nov-17 15:33N 36°25' E 022°57'1016.9
2014-Nov-17 15:00N 36°18' E 022°48'36411.1 200 / 131016.3 5.4 22.019.0
2014-Nov-16 06:10N 36°26' E 015°17'1011.1
2014-Nov-16 05:16N 36°26' E 015°04'911.3
2014-Nov-16 04:30N 36°26' E 014°53'1111.5
2014-Nov-16 03:33N 36°26' E 014°40'1211.7
2014-Nov-16 02:33N 36°30' E 014°26'1111.5
2014-Nov-16 01:33N 36°33' E 014°13'1111.3
2014-Nov-16 00:33N 36°36' E 013°59'1111.3
2014-Nov-15 23:33N 36°41' E 013°46'1211.4
2014-Nov-15 22:31N 36°44' E 013°32'1111.1
2014-Nov-15 21:33N 36°47' E 013°19'1110.9
2014-Nov-15 20:33N 36°51' E 013°06'14711.8
2014-Nov-15 08:05N 37°34' E 010°10'2012.6
2014-Nov-15 06:28N 37°30' E 009°44'8512.3
2014-Nov-14 23:32N 37°17' E 007°58'  
Track history (hours):
 
Tides and Currents Weather Stations Pressure Air Temp Water Temp Dewpoint Dewpoint Depression Visibility Wind Speed Wind Dir Waves Ship Positions

Flinterduin

Last reported at 2014-Nov-18 23:33 UTC. Time now 2014-Nov-22 15:42 UTC.
Position N 39°38' E 024°02'.

Length 112 m; beam 15 m.

Type: Ship (hazmat cat A). MMSI: 246484000.

Date/timePositionNaut miles runAvg speedWind from/ knotsBaromVisibWave heightAir tempDewpointWater temp
2014-Nov-18 23:33N 39°38' E 024°02'1110.6
2014-Nov-18 22:33N 39°33' E 024°15'5011.0
2014-Nov-18 18:00N 38°48' E 024°42'5611.4 160 / 131018.3 5.4 20.015.3
2014-Nov-18 13:05N 37°52' E 024°40'712.8
2014-Nov-18 12:33N 37°46' E 024°43'1312.8
2014-Nov-18 11:32N 37°36' E 024°53'1110.9
2014-Nov-18 10:32N 37°26' E 024°60'2 1.6
2014-Nov-18 09:33N 37°25' E 024°58'0 0.0
2014-Nov-18 08:30N 37°25' E 024°58'0 0.0
2014-Nov-18 07:33N 37°25' E 024°58'0 0.0
2014-Nov-18 06:30N 37°25' E 024°58'0 0.0
2014-Nov-18 05:33N 37°25' E 024°58'0 0.1
2014-Nov-18 04:30N 37°25' E 024°58'3 3.6
2014-Nov-18 03:33N 37°22' E 025°01'9 9.4
2014-Nov-18 02:33N 37°16' E 024°52'10 9.7
2014-Nov-18 01:33N 37°10' E 024°42'1010.4
2014-Nov-18 00:34N 37°04' E 024°32'1010.3
2014-Nov-17 23:34N 36°59' E 024°21'9 9.4
2014-Nov-17 22:33N 36°54' E 024°11'8 8.4
2014-Nov-17 21:34N 36°49' E 024°02'8 8.4
2014-Nov-17 20:33N 36°44' E 023°53'8 8.3
2014-Nov-17 19:33N 36°40' E 023°44'1010.1
2014-Nov-17 18:33N 36°34' E 023°34'5 9.3
2014-Nov-17 18:00N 36°30' E 023°30'613.6 200 / 131016.3 5.4 19.015.9
2014-Nov-17 17:33N 36°29' E 023°23'2110.7
2014-Nov-17 15:33N 36°25' E 022°57'1016.9
2014-Nov-17 15:00N 36°18' E 022°48'36411.1 200 / 131016.3 5.4 22.019.0
2014-Nov-16 06:10N 36°26' E 015°17'1011.1
2014-Nov-16 05:16N 36°26' E 015°04'911.3
2014-Nov-16 04:30N 36°26' E 014°53'1111.5
2014-Nov-16 03:33N 36°26' E 014°40'1211.7
2014-Nov-16 02:33N 36°30' E 014°26'1111.5
2014-Nov-16 01:33N 36°33' E 014°13'1111.3
2014-Nov-16 00:33N 36°36' E 013°59'1111.3
2014-Nov-15 23:33N 36°41' E 013°46'1211.4
2014-Nov-15 22:31N 36°44' E 013°32'1111.1
2014-Nov-15 21:33N 36°47' E 013°19'1110.9
2014-Nov-15 20:33N 36°51' E 013°06'14711.8
2014-Nov-15 08:05N 37°34' E 010°10'2012.6
2014-Nov-15 06:28N 37°30' E 009°44'8512.3
2014-Nov-14 23:32N 37°17' E 007°58'  

Dump ship's entire track history